sensor_id;sensor_type;location;lat;lon;timestamp;pressure;altitude;pressure_sealevel;temperature;humidity
42247;BME280;27913;42.722;23.268;2023-04-22T00:04:37;94536.44;;;9.39;77.11
42247;BME280;27913;42.722;23.268;2023-04-22T00:07:03;94491.97;;;9.02;76.69
42247;BME280;27913;42.722;23.268;2023-04-22T00:09:28;94700.50;;;10.29;76.63
42247;BME280;27913;42.722;23.268;2023-04-22T00:11:54;94533.97;;;8.80;78.09
42247;BME280;27913;42.722;23.268;2023-04-22T00:14:19;94479.84;;;8.35;79.07
42247;BME280;27913;42.722;23.268;2023-04-22T00:16:44;94696.19;;;9.64;80.13
42247;BME280;27913;42.722;23.268;2023-04-22T00:19:10;94669.31;;;9.40;79.86
42247;BME280;27913;42.722;23.268;2023-04-22T00:21:35;94710.66;;;9.60;80.17
42247;BME280;27913;42.722;23.268;2023-04-22T00:24:01;94604.13;;;9.00;80.20
42247;BME280;27913;42.722;23.268;2023-04-22T00:26:27;94548.72;;;8.29;80.85
42247;BME280;27913;42.722;23.268;2023-04-22T00:28:52;94713.06;;;9.17;81.23
42247;BME280;27913;42.722;23.268;2023-04-22T00:31:18;94720.72;;;8.97;82.53
42247;BME280;27913;42.722;23.268;2023-04-22T00:33:43;94608.63;;;8.02;84.27
42247;BME280;27913;42.722;23.268;2023-04-22T00:36:09;94714.53;;;8.68;84.84
42247;BME280;27913;42.722;23.268;2023-04-22T00:38:35;94712.53;;;8.70;84.32
42247;BME280;27913;42.722;23.268;2023-04-22T00:41:01;94722.38;;;8.83;83.93
42247;BME280;27913;42.722;23.268;2023-04-22T00:43:27;94683.22;;;8.66;83.14
42247;BME280;27913;42.722;23.268;2023-04-22T00:45:52;94623.88;;;8.28;82.67
42247;BME280;27913;42.722;23.268;2023-04-22T00:48:18;94641.78;;;8.09;83.19
42247;BME280;27913;42.722;23.268;2023-04-22T00:50:43;94655.75;;;8.02;83.63
42247;BME280;27913;42.722;23.268;2023-04-22T00:53:09;94640.84;;;7.87;84.40
42247;BME280;27913;42.722;23.268;2023-04-22T00:55:36;94650.69;;;7.85;84.28
42247;BME280;27913;42.722;23.268;2023-04-22T00:58:02;94600.19;;;7.61;83.80
42247;BME280;27913;42.722;23.268;2023-04-22T01:00:28;94649.13;;;7.91;83.53
42247;BME280;27913;42.722;23.268;2023-04-22T01:02:54;94675.00;;;8.09;83.41
42247;BME280;27913;42.722;23.268;2023-04-22T01:05:19;94718.19;;;8.43;82.90
42247;BME280;27913;42.722;23.268;2023-04-22T01:07:45;94634.59;;;7.73;83.51
42247;BME280;27913;42.722;23.268;2023-04-22T01:10:11;94723.28;;;8.45;83.52
42247;BME280;27913;42.722;23.268;2023-04-22T01:12:36;94645.03;;;8.12;83.23
42247;BME280;27913;42.722;23.268;2023-04-22T01:15:02;94505.06;;;7.23;82.51
42247;BME280;27913;42.722;23.268;2023-04-22T01:17:28;94721.84;;;8.57;82.84
42247;BME280;27913;42.722;23.268;2023-04-22T01:19:56;94573.66;;;7.64;82.72
42247;BME280;27913;42.722;23.268;2023-04-22T01:22:25;94667.50;;;8.21;82.95
42247;BME280;27913;42.722;23.268;2023-04-22T01:24:52;94657.38;;;8.33;82.53
42247;BME280;27913;42.722;23.268;2023-04-22T01:27:18;94722.75;;;8.65;82.34
42247;BME280;27913;42.722;23.268;2023-04-22T01:29:43;94721.75;;;8.66;82.17
42247;BME280;27913;42.722;23.268;2023-04-22T01:32:09;94582.25;;;7.73;81.96
42247;BME280;27913;42.722;23.268;2023-04-22T01:34:35;94705.50;;;8.55;81.90
42247;BME280;27913;42.722;23.268;2023-04-22T01:37:00;94640.06;;;8.17;82.20
42247;BME280;27913;42.722;23.268;2023-04-22T01:39:26;94583.88;;;7.89;81.46
42247;BME280;27913;42.722;23.268;2023-04-22T01:41:52;94731.59;;;8.79;81.20
42247;BME280;27913;42.722;23.268;2023-04-22T01:44:17;94717.69;;;8.63;81.55
42247;BME280;27913;42.722;23.268;2023-04-22T01:46:44;94639.13;;;8.25;81.34
42247;BME280;27913;42.722;23.268;2023-04-22T01:49:09;94670.59;;;8.40;81.20
42247;BME280;27913;42.722;23.268;2023-04-22T01:51:35;94728.59;;;8.82;81.26
42247;BME280;27913;42.722;23.268;2023-04-22T01:54:01;94571.41;;;7.91;80.97
42247;BME280;27913;42.722;23.268;2023-04-22T01:56:28;94487.75;;;7.37;80.84
42247;BME280;27913;42.722;23.268;2023-04-22T01:58:53;94687.94;;;8.56;80.76
42247;BME280;27913;42.722;23.268;2023-04-22T02:01:19;94722.38;;;8.83;80.78
42247;BME280;27913;42.722;23.268;2023-04-22T02:03:44;94725.25;;;8.88;80.64
42247;BME280;27913;42.722;23.268;2023-04-22T02:06:10;94716.19;;;8.91;80.52
42247;BME280;27913;42.722;23.268;2023-04-22T02:08:36;94712.78;;;8.90;80.28
42247;BME280;27913;42.722;23.268;2023-04-22T02:11:02;94495.22;;;7.56;80.32
42247;BME280;27913;42.722;23.268;2023-04-22T02:13:37;94721.63;;;8.89;80.51
42247;BME280;27913;42.722;23.268;2023-04-22T02:16:03;94640.22;;;8.45;80.86
42247;BME280;27913;42.722;23.268;2023-04-22T02:18:29;94676.75;;;8.62;80.83
42247;BME280;27913;42.722;23.268;2023-04-22T02:20:55;94616.47;;;8.32;80.62
42247;BME280;27913;42.722;23.268;2023-04-22T02:23:20;94608.78;;;8.30;80.78
42247;BME280;27913;42.722;23.268;2023-04-22T02:25:50;94624.47;;;8.45;80.53
42247;BME280;27913;42.722;23.268;2023-04-22T02:28:16;94516.72;;;7.81;80.57
42247;BME280;27913;42.722;23.268;2023-04-22T02:30:42;94709.03;;;9.00;80.61
42247;BME280;27913;42.722;23.268;2023-04-22T02:33:07;94720.16;;;9.02;80.68
42247;BME280;27913;42.722;23.268;2023-04-22T02:35:33;94683.75;;;8.77;80.63
42247;BME280;27913;42.722;23.268;2023-04-22T02:37:59;94729.88;;;9.01;80.47
42247;BME280;27913;42.722;23.268;2023-04-22T02:40:24;94665.00;;;8.58;80.78
42247;BME280;27913;42.722;23.268;2023-04-22T02:42:50;94718.47;;;8.94;81.15
42247;BME280;27913;42.722;23.268;2023-04-22T02:45:15;94609.25;;;8.34;80.83
42247;BME280;27913;42.722;23.268;2023-04-22T02:47:41;94697.31;;;8.80;80.49
42247;BME280;27913;42.722;23.268;2023-04-22T02:50:07;94628.47;;;8.41;80.38
42247;BME280;27913;42.722;23.268;2023-04-22T02:52:33;94712.88;;;8.97;80.56
42247;BME280;27913;42.722;23.268;2023-04-22T02:54:59;94591.63;;;8.13;80.48
42247;BME280;27913;42.722;23.268;2023-04-22T02:57:25;94639.22;;;8.46;80.78
42247;BME280;27913;42.722;23.268;2023-04-22T02:59:51;94660.75;;;8.57;80.63
42247;BME280;27913;42.722;23.268;2023-04-22T03:02:17;94597.88;;;8.12;80.17
42247;BME280;27913;42.722;23.268;2023-04-22T03:04:42;94730.78;;;8.93;79.71
42247;BME280;27913;42.722;23.268;2023-04-22T03:07:08;94721.66;;;8.74;80.31
42247;BME280;27913;42.722;23.268;2023-04-22T03:09:33;94667.16;;;8.39;80.72
42247;BME280;27913;42.722;23.268;2023-04-22T03:11:59;94639.78;;;8.27;80.67
42247;BME280;27913;42.722;23.268;2023-04-22T03:14:24;94676.25;;;8.43;80.20
42247;BME280;27913;42.722;23.268;2023-04-22T03:16:50;94725.97;;;8.82;80.49
42247;BME280;27913;42.722;23.268;2023-04-22T03:19:15;94636.81;;;8.15;80.22
42247;BME280;27913;42.722;23.268;2023-04-22T03:21:41;94514.09;;;7.36;79.94
42247;BME280;27913;42.722;23.268;2023-04-22T03:24:06;94700.75;;;8.51;80.25
42247;BME280;27913;42.722;23.268;2023-04-22T03:26:32;94716.53;;;8.66;79.95
42247;BME280;27913;42.722;23.268;2023-04-22T03:28:57;94741.28;;;8.78;79.68
42247;BME280;27913;42.722;23.268;2023-04-22T03:31:23;94690.72;;;8.54;80.17
42247;BME280;27913;42.722;23.268;2023-04-22T03:33:48;94738.03;;;8.76;80.01
42247;BME280;27913;42.722;23.268;2023-04-22T03:36:14;94669.13;;;8.37;80.31
42247;BME280;27913;42.722;23.268;2023-04-22T03:38:39;94752.75;;;8.77;80.51
42247;BME280;27913;42.722;23.268;2023-04-22T03:41:05;94706.38;;;8.48;80.35
42247;BME280;27913;42.722;23.268;2023-04-22T03:43:31;94645.81;;;8.12;80.40
42247;BME280;27913;42.722;23.268;2023-04-22T03:45:56;94741.38;;;8.70;80.67
42247;BME280;27913;42.722;23.268;2023-04-22T03:48:21;94506.75;;;7.16;80.42
42247;BME280;27913;42.722;23.268;2023-04-22T03:50:47;94692.00;;;8.28;80.71
42247;BME280;27913;42.722;23.268;2023-04-22T03:53:12;94759.44;;;8.65;80.58
42247;BME280;27913;42.722;23.268;2023-04-22T03:55:38;94702.00;;;8.25;80.65
42247;BME280;27913;42.722;23.268;2023-04-22T03:58:03;94768.31;;;8.64;81.05
42247;BME280;27913;42.722;23.268;2023-04-22T04:00:29;94761.00;;;8.59;81.17
42247;BME280;27913;42.722;23.268;2023-04-22T04:02:54;94768.09;;;8.50;80.87
42247;BME280;27913;42.722;23.268;2023-04-22T04:05:20;94709.63;;;7.81;82.21
42247;BME280;27913;42.722;23.268;2023-04-22T04:07:45;94668.19;;;7.46;83.14
42247;BME280;27913;42.722;23.268;2023-04-22T04:10:11;94706.81;;;7.82;83.16
42247;BME280;27913;42.722;23.268;2023-04-22T04:12:37;94711.59;;;7.79;83.04
42247;BME280;27913;42.722;23.268;2023-04-22T04:15:02;94763.97;;;8.17;83.42
42247;BME280;27913;42.722;23.268;2023-04-22T04:17:28;94709.63;;;7.81;83.03
42247;BME280;27913;42.722;23.268;2023-04-22T04:19:54;94616.34;;;7.26;83.00
42247;BME280;27913;42.722;23.268;2023-04-22T04:22:20;94705.00;;;7.68;82.97
42247;BME280;27913;42.722;23.268;2023-04-22T04:24:46;94633.78;;;7.10;83.60
42247;BME280;27913;42.722;23.268;2023-04-22T04:27:12;94780.53;;;7.94;83.82
42247;BME280;27913;42.722;23.268;2023-04-22T04:29:38;94687.66;;;7.43;83.73
42247;BME280;27913;42.722;23.268;2023-04-22T04:32:06;94713.00;;;7.66;83.66
42247;BME280;27913;42.722;23.268;2023-04-22T04:34:32;94683.03;;;7.54;83.26
42247;BME280;27913;42.722;23.268;2023-04-22T04:36:59;94586.09;;;6.85;83.06
42247;BME280;27913;42.722;23.268;2023-04-22T04:39:25;94798.59;;;8.28;82.92
42247;BME280;27913;42.722;23.268;2023-04-22T04:41:53;94763.38;;;7.92;82.92
42247;BME280;27913;42.722;23.268;2023-04-22T04:44:19;94783.94;;;8.18;82.66
42247;BME280;27913;42.722;23.268;2023-04-22T04:46:46;94700.28;;;7.63;83.05
42247;BME280;27913;42.722;23.268;2023-04-22T04:49:12;94624.38;;;7.24;82.79
42247;BME280;27913;42.722;23.268;2023-04-22T04:51:38;94761.44;;;8.09;82.50
42247;BME280;27913;42.722;23.268;2023-04-22T04:54:04;94797.53;;;8.37;82.19
42247;BME280;27913;42.722;23.268;2023-04-22T04:56:29;94733.72;;;7.76;82.58
42247;BME280;27913;42.722;23.268;2023-04-22T04:58:55;94798.81;;;8.03;82.60
42247;BME280;27913;42.722;23.268;2023-04-22T05:01:21;94635.47;;;7.03;82.03
42247;BME280;27913;42.722;23.268;2023-04-22T05:03:47;94809.47;;;8.01;82.81
42247;BME280;27913;42.722;23.268;2023-04-22T05:06:12;94824.28;;;8.09;82.96
42247;BME280;27913;42.722;23.268;2023-04-22T05:08:38;94733.03;;;7.59;82.77
42247;BME280;27913;42.722;23.268;2023-04-22T05:11:03;94627.03;;;6.93;82.57
42247;BME280;27913;42.722;23.268;2023-04-22T05:13:29;94815.22;;;8.20;82.68
42247;BME280;27913;42.722;23.268;2023-04-22T05:15:55;94832.38;;;8.22;82.30
42247;BME280;27913;42.722;23.268;2023-04-22T05:18:21;94800.34;;;8.12;82.32
42247;BME280;27913;42.722;23.268;2023-04-22T05:20:47;94830.94;;;8.20;82.61
42247;BME280;27913;42.722;23.268;2023-04-22T05:23:12;94832.38;;;8.22;82.74
42247;BME280;27913;42.722;23.268;2023-04-22T05:25:37;94772.41;;;7.66;82.78
42247;BME280;27913;42.722;23.268;2023-04-22T05:28:03;94833.31;;;8.06;83.32
42247;BME280;27913;42.722;23.268;2023-04-22T05:30:28;94562.19;;;6.41;83.05
42247;BME280;27913;42.722;23.268;2023-04-22T05:32:54;94774.38;;;7.64;83.61
42247;BME280;27913;42.722;23.268;2023-04-22T05:35:19;94840.84;;;8.09;83.52
42247;BME280;27913;42.722;23.268;2023-04-22T05:37:45;94720.06;;;7.42;83.57
42247;BME280;27913;42.722;23.268;2023-04-22T05:40:11;94635.22;;;6.89;83.12
42247;BME280;27913;42.722;23.268;2023-04-22T05:42:36;94687.31;;;7.46;83.10
42247;BME280;27913;42.722;23.268;2023-04-22T05:45:02;94830.16;;;8.34;83.53
42247;BME280;27913;42.722;23.268;2023-04-22T05:47:28;94575.75;;;6.92;83.39
42247;BME280;27913;42.722;23.268;2023-04-22T05:49:53;94831.13;;;8.57;82.51
42247;BME280;27913;42.722;23.268;2023-04-22T05:52:19;94842.81;;;8.69;82.53
42247;BME280;27913;42.722;23.268;2023-04-22T05:54:44;94827.19;;;8.76;82.92
42247;BME280;27913;42.722;23.268;2023-04-22T05:57:10;94836.66;;;8.77;82.77
42247;BME280;27913;42.722;23.268;2023-04-22T05:59:35;94808.53;;;8.86;82.03
42247;BME280;27913;42.722;23.268;2023-04-22T06:02:01;94827.19;;;9.06;81.88
42247;BME280;27913;42.722;23.268;2023-04-22T06:04:26;94826.34;;;9.21;80.93
42247;BME280;27913;42.722;23.268;2023-04-22T06:06:52;94810.22;;;9.24;79.88
42247;BME280;27913;42.722;23.268;2023-04-22T06:09:20;94763.84;;;8.94;79.70
42247;BME280;27913;42.722;23.268;2023-04-22T06:11:46;94829.69;;;9.45;79.26
42247;BME280;27913;42.722;23.268;2023-04-22T06:14:11;94819.00;;;9.47;79.01
42247;BME280;27913;42.722;23.268;2023-04-22T06:16:37;94815.34;;;9.48;78.47
42247;BME280;27913;42.722;23.268;2023-04-22T06:19:04;94824.63;;;9.65;78.87
42247;BME280;27913;42.722;23.268;2023-04-22T06:21:30;94762.28;;;9.30;78.92
42247;BME280;27913;42.722;23.268;2023-04-22T06:23:56;94727.09;;;9.25;78.64
42247;BME280;27913;42.722;23.268;2023-04-22T06:26:22;94821.47;;;9.92;78.46
42247;BME280;27913;42.722;23.268;2023-04-22T06:28:48;94802.22;;;9.85;78.69
42247;BME280;27913;42.722;23.268;2023-04-22T06:31:13;94838.19;;;10.06;79.89
42247;BME280;27913;42.722;23.268;2023-04-22T06:33:39;94830.56;;;10.11;79.98
42247;BME280;27913;42.722;23.268;2023-04-22T06:36:05;94700.00;;;9.39;79.08
42247;BME280;27913;42.722;23.268;2023-04-22T06:38:30;94813.47;;;10.22;79.16
42247;BME280;27913;42.722;23.268;2023-04-22T06:40:56;94824.22;;;10.27;79.17
42247;BME280;27913;42.722;23.268;2023-04-22T06:45:03;94632.06;;;9.08;79.05
42247;BME280;27913;42.722;23.268;2023-04-22T06:47:29;94682.78;;;9.37;79.41
42247;BME280;27913;42.722;23.268;2023-04-22T06:49:54;94701.22;;;9.65;79.74
42247;BME280;27913;42.722;23.268;2023-04-22T06:54:41;94685.63;;;9.57;79.25
42247;BME280;27913;42.722;23.268;2023-04-22T06:57:06;94806.50;;;10.36;81.59
42247;BME280;27913;42.722;23.268;2023-04-22T06:59:32;94781.78;;;10.31;80.82
42247;BME280;27913;42.722;23.268;2023-04-22T07:01:57;94806.47;;;10.58;81.17
42247;BME280;27913;42.722;23.268;2023-04-22T07:04:23;94806.78;;;10.77;83.88
42247;BME280;27913;42.722;23.268;2023-04-22T07:06:48;94826.91;;;10.92;81.79
42247;BME280;27913;42.722;23.268;2023-04-22T07:09:14;94761.03;;;10.43;80.19
42247;BME280;27913;42.722;23.268;2023-04-22T07:11:40;94712.13;;;10.13;80.13
42247;BME280;27913;42.722;23.268;2023-04-22T07:14:05;94624.94;;;9.74;79.13
42247;BME280;27913;42.722;23.268;2023-04-22T07:16:31;94787.56;;;10.70;79.21
42247;BME280;27913;42.722;23.268;2023-04-22T07:18:56;94791.41;;;10.74;79.89
42247;BME280;27913;42.722;23.268;2023-04-22T07:21:23;94817.28;;;11.06;79.42
42247;BME280;27913;42.722;23.268;2023-04-22T07:23:49;94810.44;;;11.11;78.62
42247;BME280;27913;42.722;23.268;2023-04-22T07:26:14;94658.91;;;10.04;76.36
42247;BME280;27913;42.722;23.268;2023-04-22T07:28:40;94680.47;;;10.28;77.77
42247;BME280;27913;42.722;23.268;2023-04-22T07:31:05;94803.59;;;11.17;78.04
42247;BME280;27913;42.722;23.268;2023-04-22T07:33:30;94836.47;;;11.35;76.95
42247;BME280;27913;42.722;23.268;2023-04-22T07:35:56;94687.31;;;10.58;76.83
42247;BME280;27913;42.722;23.268;2023-04-22T07:38:22;94818.50;;;11.52;76.46
42247;BME280;27913;42.722;23.268;2023-04-22T07:40:47;94744.84;;;11.10;76.85
42247;BME280;27913;42.722;23.268;2023-04-22T07:43:13;94781.81;;;11.44;76.46
42247;BME280;27913;42.722;23.268;2023-04-22T07:45:38;94736.59;;;11.27;75.29
42247;BME280;27913;42.722;23.268;2023-04-22T07:48:04;94737.25;;;11.42;73.98
42247;BME280;27913;42.722;23.268;2023-04-22T07:50:29;94738.50;;;11.53;72.80
42247;BME280;27913;42.722;23.268;2023-04-22T07:52:55;94822.28;;;12.05;73.03
42247;BME280;27913;42.722;23.268;2023-04-22T07:55:21;94808.47;;;11.96;72.59
42247;BME280;27913;42.722;23.268;2023-04-22T07:57:47;94832.88;;;12.12;72.21
42247;BME280;27913;42.722;23.268;2023-04-22T08:00:13;94785.16;;;11.93;71.67
42247;BME280;27913;42.722;23.268;2023-04-22T08:02:39;94811.38;;;12.22;70.06
42247;BME280;27913;42.722;23.268;2023-04-22T08:05:05;94793.72;;;12.09;68.22
42247;BME280;27913;42.722;23.268;2023-04-22T08:07:31;94720.47;;;11.64;67.28
42247;BME280;27913;42.722;23.268;2023-04-22T08:09:56;94833.72;;;12.33;67.49
42247;BME280;27913;42.722;23.268;2023-04-22T08:12:22;94709.94;;;11.70;67.53
42247;BME280;27913;42.722;23.268;2023-04-22T08:14:48;94819.09;;;12.37;67.40
42247;BME280;27913;42.722;23.268;2023-04-22T08:17:13;94589.38;;;10.98;67.01
42247;BME280;27913;42.722;23.268;2023-04-22T08:19:39;94713.59;;;11.90;66.56
42247;BME280;27913;42.722;23.268;2023-04-22T08:22:04;94721.13;;;11.93;65.99
42247;BME280;27913;42.722;23.268;2023-04-22T08:24:29;94770.41;;;12.13;65.80
42247;BME280;27913;42.722;23.268;2023-04-22T08:26:56;94806.31;;;12.48;65.85
42247;BME280;27913;42.722;23.268;2023-04-22T08:29:21;94788.66;;;12.55;65.87
42247;BME280;27913;42.722;23.268;2023-04-22T08:31:47;94800.00;;;12.62;64.36
42247;BME280;27913;42.722;23.268;2023-04-22T08:34:12;94659.69;;;11.92;64.59
42247;BME280;27913;42.722;23.268;2023-04-22T08:36:38;94768.78;;;12.59;64.25
42247;BME280;27913;42.722;23.268;2023-04-22T08:39:03;94795.09;;;12.93;64.04
42247;BME280;27913;42.722;23.268;2023-04-22T08:41:29;94786.75;;;13.03;63.31
42247;BME280;27913;42.722;23.268;2023-04-22T08:43:58;94783.47;;;13.08;62.55
42247;BME280;27913;42.722;23.268;2023-04-22T08:46:24;94740.53;;;12.73;62.48
42247;BME280;27913;42.722;23.268;2023-04-22T08:48:51;94696.97;;;12.50;62.71
42247;BME280;27913;42.722;23.268;2023-04-22T08:51:18;94780.41;;;13.11;60.55
42247;BME280;27913;42.722;23.268;2023-04-22T08:53:44;94771.50;;;13.12;60.75
42247;BME280;27913;42.722;23.268;2023-04-22T08:56:11;94730.94;;;12.92;60.73
42247;BME280;27913;42.722;23.268;2023-04-22T08:58:39;94576.81;;;11.88;59.46
42247;BME280;27913;42.722;23.268;2023-04-22T09:01:06;94767.19;;;13.24;60.67
42247;BME280;27913;42.722;23.268;2023-04-22T09:03:32;94752.56;;;13.22;60.40
42247;BME280;27913;42.722;23.268;2023-04-22T09:06:02;94716.47;;;13.09;60.66
42247;BME280;27913;42.722;23.268;2023-04-22T09:08:29;94728.41;;;13.18;60.55
42247;BME280;27913;42.722;23.268;2023-04-22T09:10:56;94771.31;;;13.59;60.29
42247;BME280;27913;42.722;23.268;2023-04-22T09:13:22;94752.47;;;13.42;60.04
42247;BME280;27913;42.722;23.268;2023-04-22T09:15:49;94777.16;;;13.68;59.92
42247;BME280;27913;42.722;23.268;2023-04-22T09:18:19;94701.34;;;13.29;60.24
42247;BME280;27913;42.722;23.268;2023-04-22T09:20:48;94546.06;;;12.41;59.41
42247;BME280;27913;42.722;23.268;2023-04-22T09:23:18;94699.81;;;13.47;59.34
42247;BME280;27913;42.722;23.268;2023-04-22T09:25:44;94719.03;;;13.68;59.13
42247;BME280;27913;42.722;23.268;2023-04-22T09:28:15;94603.44;;;12.92;58.89
42247;BME280;27913;42.722;23.268;2023-04-22T09:30:43;94753.19;;;13.95;58.82
42247;BME280;27913;42.722;23.268;2023-04-22T09:33:10;94700.53;;;13.68;58.32
42247;BME280;27913;42.722;23.268;2023-04-22T09:35:41;94563.09;;;12.85;56.55
42247;BME280;27913;42.722;23.268;2023-04-22T09:38:08;94699.31;;;13.96;55.88
42247;BME280;27913;42.722;23.268;2023-04-22T09:40:36;94752.59;;;14.44;55.66
42247;BME280;27913;42.722;23.268;2023-04-22T09:43:05;94708.88;;;14.23;55.73
42247;BME280;27913;42.722;23.268;2023-04-22T09:45:33;94653.66;;;14.08;55.58
42247;BME280;27913;42.722;23.268;2023-04-22T09:48:05;94649.63;;;14.05;55.06
42247;BME280;27913;42.722;23.268;2023-04-22T09:50:34;94695.13;;;14.33;51.48
42247;BME280;27913;42.722;23.268;2023-04-22T09:53:08;94704.56;;;14.47;50.79
42247;BME280;27913;42.722;23.268;2023-04-22T09:55:37;94672.56;;;14.30;50.15
42247;BME280;27913;42.722;23.268;2023-04-22T09:58:08;94748.66;;;14.54;49.94
42247;BME280;27913;42.722;23.268;2023-04-22T10:00:38;94671.63;;;13.99;50.31
42247;BME280;27913;42.722;23.268;2023-04-22T10:03:04;94552.06;;;13.27;47.03
42247;BME280;27913;42.722;23.268;2023-04-22T10:05:32;94697.47;;;14.22;45.87
42247;BME280;27913;42.722;23.268;2023-04-22T10:08:03;94695.19;;;14.26;44.03
42247;BME280;27913;42.722;23.268;2023-04-22T10:10:29;94689.44;;;14.10;46.38
42247;BME280;27913;42.722;23.268;2023-04-22T10:12:55;94748.56;;;14.42;47.76
42247;BME280;27913;42.722;23.268;2023-04-22T10:15:21;94655.34;;;14.02;45.82
42247;BME280;27913;42.722;23.268;2023-04-22T10:17:49;94726.75;;;14.46;44.27
42247;BME280;27913;42.722;23.268;2023-04-22T10:20:17;94588.81;;;13.61;44.58
42247;BME280;27913;42.722;23.268;2023-04-22T10:22:44;94498.09;;;13.16;44.13
42247;BME280;27913;42.722;23.268;2023-04-22T10:25:21;94524.91;;;13.45;44.63
42247;BME280;27913;42.722;23.268;2023-04-22T10:28:04;94592.59;;;13.91;45.77
42247;BME280;27913;42.722;23.268;2023-04-22T10:30:32;94629.09;;;14.26;46.28
42247;BME280;27913;42.722;23.268;2023-04-22T10:36:09;94716.88;;;14.79;44.76
42247;BME280;27913;42.722;23.268;2023-04-22T10:41:25;94670.41;;;14.65;43.04
42247;BME280;27913;42.722;23.268;2023-04-22T10:43:55;94690.78;;;14.83;43.27
42247;BME280;27913;42.722;23.268;2023-04-22T10:49:11;94664.56;;;14.74;47.95
42247;BME280;27913;42.722;23.268;2023-04-22T10:51:42;94634.00;;;14.79;45.49
42247;BME280;27913;42.722;23.268;2023-04-22T10:57:11;94648.72;;;14.93;45.08
42247;BME280;27913;42.722;23.268;2023-04-22T10:59:47;94608.53;;;14.78;43.84
42247;BME280;27913;42.722;23.268;2023-04-22T11:02:14;94658.88;;;14.96;43.37
42247;BME280;27913;42.722;23.268;2023-04-22T11:04:40;94633.78;;;14.61;44.99
42247;BME280;27913;42.722;23.268;2023-04-22T11:09:39;94701.38;;;15.02;47.28
42247;BME280;27913;42.722;23.268;2023-04-22T11:15:00;94617.50;;;14.46;47.95
42247;BME280;27913;42.722;23.268;2023-04-22T11:17:26;94705.97;;;15.06;47.27
42247;BME280;27913;42.722;23.268;2023-04-22T11:19:52;94546.78;;;13.97;47.44
42247;BME280;27913;42.722;23.268;2023-04-22T11:22:22;94463.19;;;13.39;47.20
42247;BME280;27913;42.722;23.268;2023-04-22T11:24:58;94713.25;;;15.11;47.85
42247;BME280;27913;42.722;23.268;2023-04-22T11:27:24;94706.44;;;15.03;48.67
42247;BME280;27913;42.722;23.268;2023-04-22T11:30:04;94683.66;;;14.83;48.47
42247;BME280;27913;42.722;23.268;2023-04-22T11:32:30;94685.44;;;14.64;48.50
42247;BME280;27913;42.722;23.268;2023-04-22T11:34:56;94732.53;;;15.00;49.47
42247;BME280;27913;42.722;23.268;2023-04-22T11:37:23;94729.09;;;14.99;49.88
42247;BME280;27913;42.722;23.268;2023-04-22T11:39:49;94750.13;;;14.94;51.32
42247;BME280;27913;42.722;23.268;2023-04-22T11:42:20;94545.75;;;13.79;50.90
42247;BME280;27913;42.722;23.268;2023-04-22T11:44:52;94753.34;;;15.15;52.03
42247;BME280;27913;42.722;23.268;2023-04-22T11:47:17;94766.34;;;15.16;52.99
42247;BME280;27913;42.722;23.268;2023-04-22T11:50:03;94742.75;;;15.15;52.63
42247;BME280;27913;42.722;23.268;2023-04-22T11:52:44;94722.84;;;14.93;52.81
42247;BME280;27913;42.722;23.268;2023-04-22T11:55:16;94607.41;;;14.17;52.98
42247;BME280;27913;42.722;23.268;2023-04-22T11:57:43;94740.25;;;15.01;54.16
42247;BME280;27913;42.722;23.268;2023-04-22T12:00:12;94743.13;;;15.00;55.54
42247;BME280;27913;42.722;23.268;2023-04-22T12:02:39;94752.69;;;14.82;56.12
42247;BME280;27913;42.722;23.268;2023-04-22T12:05:08;94759.25;;;14.72;56.88
42247;BME280;27913;42.722;23.268;2023-04-22T12:07:35;94766.03;;;14.68;56.16
42247;BME280;27913;42.722;23.268;2023-04-22T12:10:01;94773.75;;;14.70;56.98
42247;BME280;27913;42.722;23.268;2023-04-22T12:12:28;94764.09;;;14.57;58.92
42247;BME280;27913;42.722;23.268;2023-04-22T12:14:53;94584.16;;;13.49;56.82
42247;BME280;27913;42.722;23.268;2023-04-22T12:17:23;94694.25;;;13.95;56.64
42247;BME280;27913;42.722;23.268;2023-04-22T12:19:53;94617.72;;;13.49;55.32
42247;BME280;27913;42.722;23.268;2023-04-22T12:22:26;94754.94;;;14.34;56.22
42247;BME280;27913;42.722;23.268;2023-04-22T12:24:52;94771.09;;;14.70;55.98
42247;BME280;27913;42.722;23.268;2023-04-22T12:27:18;94771.47;;;14.73;55.96
42247;BME280;27913;42.722;23.268;2023-04-22T12:29:52;94726.81;;;14.40;56.25
42247;BME280;27913;42.722;23.268;2023-04-22T12:32:19;94781.16;;;14.61;59.06
42247;BME280;27913;42.722;23.268;2023-04-22T12:34:45;94771.56;;;14.67;58.87
42247;BME280;27913;42.722;23.268;2023-04-22T12:37:11;94648.88;;;13.98;58.59
42247;BME280;27913;42.722;23.268;2023-04-22T12:39:36;94766.47;;;14.65;58.18
42247;BME280;27913;42.722;23.268;2023-04-22T12:42:03;94678.88;;;14.10;58.73
42247;BME280;27913;42.722;23.268;2023-04-22T12:44:30;94773.16;;;14.68;57.55
42247;BME280;27913;42.722;23.268;2023-04-22T12:46:56;94687.09;;;14.21;56.55
42247;BME280;27913;42.722;23.268;2023-04-22T12:49:21;94756.00;;;14.52;55.91
42247;BME280;27913;42.722;23.268;2023-04-22T12:51:47;94751.00;;;14.62;57.39
42247;BME280;27913;42.722;23.268;2023-04-22T12:54:12;94760.34;;;14.90;56.03
42247;BME280;27913;42.722;23.268;2023-04-22T12:56:37;94750.78;;;15.08;53.54
42247;BME280;27913;42.722;23.268;2023-04-22T12:59:03;94755.72;;;15.23;52.55
42247;BME280;27913;42.722;23.268;2023-04-22T13:01:29;94760.25;;;15.34;51.64
42247;BME280;27913;42.722;23.268;2023-04-22T13:03:55;94759.00;;;15.37;50.47
42247;BME280;27913;42.722;23.268;2023-04-22T13:06:20;94764.91;;;15.20;50.94
42247;BME280;27913;42.722;23.268;2023-04-22T13:08:46;94755.75;;;15.16;51.31
42247;BME280;27913;42.722;23.268;2023-04-22T13:11:11;94764.66;;;15.41;50.39
42247;BME280;27913;42.722;23.268;2023-04-22T13:13:37;94757.81;;;15.64;50.07
42247;BME280;27913;42.722;23.268;2023-04-22T13:16:02;94754.22;;;15.89;49.30